createdAt,value
2018-08-08T00:00:01.457Z,50.35
2018-08-08T00:01:06.105Z,50.25
2018-08-08T00:02:10.700Z,50.31
2018-08-08T00:03:15.257Z,50.33
2018-08-08T00:04:20.096Z,50.50
2018-08-08T00:05:24.838Z,50.33
2018-08-08T00:06:29.504Z,50.50
2018-08-08T00:07:34.453Z,50.31
2018-08-08T00:08:40.647Z,50.35
2018-08-08T00:09:45.313Z,50.52
2018-08-08T00:10:51.102Z,50.67
2018-08-08T00:11:55.750Z,50.35
2018-08-08T00:13:00.425Z,50.24
2018-08-08T00:14:05.094Z,50.30
2018-08-08T00:15:14.134Z,51.01
2018-08-08T00:16:18.845Z,50.84
2018-08-08T00:17:23.805Z,51.38
2018-08-08T00:18:28.495Z,51.56
2018-08-08T00:19:33.174Z,51.71
2018-08-08T00:20:37.842Z,51.80
2018-08-08T00:21:42.514Z,51.78
2018-08-08T00:22:47.222Z,51.96
2018-08-08T00:23:53.187Z,51.75
2018-08-08T00:24:59.585Z,52.12
2018-08-08T00:26:05.578Z,51.77
2018-08-08T00:27:11.256Z,51.74
2018-08-08T00:28:16.044Z,52.20
2018-08-08T00:29:20.792Z,52.68
2018-08-08T00:30:25.826Z,52.88
2018-08-08T00:31:30.543Z,52.71
2018-08-08T00:32:35.238Z,52.82
2018-08-08T00:33:41.471Z,52.88
2018-08-08T00:34:46.142Z,53.61
2018-08-08T00:35:50.808Z,53.51
2018-08-08T00:36:56.216Z,53.56
2018-08-08T00:38:00.824Z,53.04
2018-08-08T00:39:06.850Z,53.46
2018-08-08T00:40:13.259Z,53.55
2018-08-08T00:41:17.850Z,53.83
2018-08-08T00:42:23.078Z,53.46
2018-08-08T00:43:27.944Z,53.61
2018-08-08T00:44:32.652Z,53.95
2018-08-08T00:45:37.198Z,53.59
2018-08-08T00:46:41.716Z,54.26
2018-08-08T00:47:47.334Z,54.10
2018-08-08T00:48:51.929Z,54.17
2018-08-08T00:49:56.854Z,54.11
2018-08-08T00:51:01.386Z,53.72
2018-08-08T00:52:05.963Z,53.79
2018-08-08T00:53:10.510Z,54.03
2018-08-08T00:54:15.096Z,53.99
2018-08-08T00:55:19.673Z,54.17
2018-08-08T00:56:24.520Z,54.70
2018-08-08T00:57:29.088Z,54.76
2018-08-08T00:58:33.654Z,54.77
2018-08-08T00:59:38.269Z,54.75
2018-08-08T01:00:42.877Z,55.09
2018-08-08T01:01:47.427Z,54.90
2018-08-08T01:02:52.274Z,54.63
2018-08-08T01:03:56.840Z,54.72
2018-08-08T01:05:01.507Z,55.11
2018-08-08T01:06:06.163Z,54.87
2018-08-08T01:07:10.863Z,55.26
2018-08-08T01:08:15.597Z,55.21
2018-08-08T01:09:20.602Z,55.21
2018-08-08T01:10:25.278Z,55.42
2018-08-08T01:11:29.948Z,55.14
2018-08-08T01:12:34.749Z,55.16
2018-08-08T01:13:39.441Z,55.46
2018-08-08T01:14:44.259Z,55.37
2018-08-08T01:15:49.267Z,55.51
2018-08-08T01:16:53.961Z,55.49
2018-08-08T01:17:58.555Z,55.31
2018-08-08T01:19:03.391Z,55.32
2018-08-08T01:20:09.402Z,55.38
2018-08-08T01:21:14.164Z,54.91
2018-08-08T01:22:19.546Z,55.37
2018-08-08T01:23:24.211Z,55.29
2018-08-08T01:24:28.892Z,55.54
2018-08-08T01:25:36.332Z,54.88
2018-08-08T01:26:40.980Z,55.46
2018-08-08T01:27:46.091Z,55.30
2018-08-08T01:28:51.047Z,55.10
2018-08-08T01:29:55.694Z,55.11
2018-08-08T01:31:00.405Z,54.81
2018-08-08T01:32:05.073Z,55.22
2018-08-08T01:33:09.603Z,55.04
2018-08-08T01:34:14.176Z,55.07
2018-08-08T01:35:19.035Z,55.31
2018-08-08T01:36:23.968Z,55.05
2018-08-08T01:37:28.464Z,54.65
2018-08-08T01:38:33.005Z,54.59
2018-08-08T01:39:37.539Z,54.50
2018-08-08T01:40:42.102Z,54.65
2018-08-08T01:41:46.936Z,54.17
2018-08-08T01:42:51.485Z,54.35
2018-08-08T01:43:56.047Z,54.50
2018-08-08T01:45:00.605Z,54.67
2018-08-08T01:46:05.202Z,54.66
2018-08-08T01:47:09.815Z,54.04
2018-08-08T01:48:14.678Z,54.14
2018-08-08T01:49:19.255Z,54.65
2018-08-08T01:50:23.859Z,54.51
2018-08-08T01:51:31.483Z,54.96
2018-08-08T01:52:36.067Z,54.91
2018-08-08T01:53:40.579Z,54.84
2018-08-08T01:54:45.399Z,54.99
2018-08-08T01:55:49.980Z,54.86
2018-08-08T01:56:54.494Z,55.09
2018-08-08T01:57:59.008Z,54.61
2018-08-08T01:59:03.551Z,55.01
2018-08-08T02:00:10.416Z,54.60
2018-08-08T02:01:14.941Z,54.66
2018-08-08T02:02:19.462Z,54.59
2018-08-08T02:03:24.029Z,55.03
2018-08-08T02:04:28.667Z,54.28
2018-08-08T02:05:33.325Z,54.40
2018-08-08T02:06:38.252Z,54.42
2018-08-08T02:07:43.216Z,53.75
2018-08-08T02:08:47.986Z,53.95
2018-08-08T02:09:52.625Z,53.89
2018-08-08T02:10:57.269Z,53.41
2018-08-08T02:12:01.908Z,53.14
2018-08-08T02:13:06.812Z,53.79
2018-08-08T02:14:11.459Z,53.47
2018-08-08T02:15:16.133Z,53.40
2018-08-08T02:16:20.708Z,53.14
2018-08-08T02:17:25.378Z,53.44
2018-08-08T02:18:30.084Z,53.18
2018-08-08T02:19:35.014Z,53.02
2018-08-08T02:20:39.691Z,52.80
2018-08-08T02:21:44.351Z,53.85
2018-08-08T02:22:48.986Z,55.11
2018-08-08T02:23:53.662Z,56.59
2018-08-08T02:24:58.337Z,56.82
2018-08-08T02:26:03.282Z,56.77
2018-08-08T02:27:07.943Z,57.14
2018-08-08T02:28:12.505Z,57.34
2018-08-08T02:29:17.112Z,57.17
2018-08-08T02:30:22.831Z,57.24
2018-08-08T02:31:27.412Z,56.95
2018-08-08T02:32:32.279Z,56.26
2018-08-08T02:33:36.814Z,56.59
2018-08-08T02:34:41.353Z,56.87
2018-08-08T02:35:45.926Z,57.79
2018-08-08T02:36:50.843Z,58.35
2018-08-08T02:37:55.434Z,58.33
2018-08-08T02:39:00.296Z,59.36
2018-08-08T02:40:05.772Z,60.01
2018-08-08T02:41:10.586Z,59.99
2018-08-08T02:42:15.329Z,60.02
2018-08-08T02:43:20.033Z,60.81
2018-08-08T02:44:24.688Z,60.97
2018-08-08T02:45:29.616Z,60.56
2018-08-08T02:46:34.310Z,60.39
2018-08-08T02:47:39.012Z,60.89
2018-08-08T02:48:43.686Z,60.90
2018-08-08T02:49:48.360Z,60.39
2018-08-08T02:50:52.992Z,60.02
2018-08-08T02:51:57.912Z,59.98
2018-08-08T02:53:02.615Z,59.99
2018-08-08T02:54:07.341Z,60.33
2018-08-08T02:55:12.829Z,61.37
2018-08-08T02:56:17.469Z,63.14
2018-08-08T02:57:22.090Z,63.81
2018-08-08T02:58:27.113Z,63.72
2018-08-08T02:59:31.767Z,63.79
2018-08-08T03:00:36.417Z,64.25
2018-08-08T03:01:41.107Z,64.09
2018-08-08T03:02:45.971Z,63.33
2018-08-08T03:03:50.613Z,63.15
2018-08-08T03:04:55.557Z,63.69
2018-08-08T03:06:00.253Z,63.77
2018-08-08T03:07:04.956Z,64.07
2018-08-08T03:08:09.626Z,64.65
2018-08-08T03:09:14.266Z,65.26
2018-08-08T03:10:19.393Z,66.40
2018-08-08T03:11:24.337Z,67.47
2018-08-08T03:12:29.004Z,67.84
2018-08-08T03:13:33.650Z,68.70
2018-08-08T03:14:38.352Z,69.27
2018-08-08T03:15:43.558Z,70.15
2018-08-08T03:16:48.204Z,70.36
2018-08-08T03:17:53.104Z,70.42
2018-08-08T03:18:58.301Z,70.42
2018-08-08T03:20:02.965Z,70.51
2018-08-08T03:21:07.619Z,70.92
2018-08-08T03:22:12.317Z,70.66
2018-08-08T03:23:17.015Z,71.28
2018-08-08T03:24:22.048Z,71.77
2018-08-08T03:25:26.715Z,73.59
2018-08-08T03:26:31.389Z,74.46
2018-08-08T03:27:36.047Z,75.71
2018-08-08T03:28:41.381Z,77.23
2018-08-08T03:29:46.016Z,77.90
2018-08-08T03:30:51.036Z,78.87
2018-08-08T03:31:55.709Z,79.28
2018-08-08T03:33:00.386Z,79.28
2018-08-08T03:34:05.469Z,79.90
2018-08-08T03:35:10.150Z,80.10
2018-08-08T03:36:14.769Z,80.54
2018-08-08T03:37:19.732Z,81.13
2018-08-08T03:38:26.191Z,81.08
2018-08-08T03:39:30.847Z,81.84
2018-08-08T03:40:35.449Z,82.31
2018-08-08T03:41:40.129Z,82.41
2018-08-08T03:42:45.330Z,82.85
2018-08-08T03:43:50.595Z,83.17
2018-08-08T03:44:55.231Z,83.61
2018-08-08T03:46:00.880Z,83.80
2018-08-08T03:47:08.975Z,84.42
2018-08-08T03:48:13.721Z,84.82
2018-08-08T03:49:18.391Z,85.22
2018-08-08T03:50:23.299Z,85.35
2018-08-08T03:51:27.939Z,85.84
2018-08-08T03:52:32.575Z,85.62
2018-08-08T03:53:37.243Z,85.68
2018-08-08T03:54:41.919Z,85.50
2018-08-08T03:55:46.527Z,85.55
2018-08-08T03:56:52.452Z,85.46
2018-08-08T03:57:57.140Z,85.23
2018-08-08T03:59:01.921Z,84.43
2018-08-08T04:00:08.741Z,84.41
2018-08-08T04:01:13.397Z,84.31
2018-08-08T04:02:18.281Z,84.81
2018-08-08T04:03:23.285Z,84.89
2018-08-08T04:04:27.919Z,85.25
2018-08-08T04:05:32.621Z,85.45
2018-08-08T04:06:37.331Z,85.41
2018-08-08T04:07:41.989Z,85.74
2018-08-08T04:08:46.667Z,85.91
2018-08-08T04:09:52.217Z,86.15
2018-08-08T04:10:56.839Z,86.33
2018-08-08T04:12:01.529Z,86.44
2018-08-08T04:13:06.189Z,86.62
2018-08-08T04:14:10.865Z,87.13
2018-08-08T04:15:17.507Z,87.77
2018-08-08T04:16:22.515Z,87.90
2018-08-08T04:17:27.549Z,87.88
2018-08-08T04:18:32.198Z,87.79
2018-08-08T04:19:36.723Z,87.71
2018-08-08T04:20:41.274Z,87.72
2018-08-08T04:21:45.837Z,87.66
2018-08-08T04:22:50.649Z,87.37
2018-08-08T04:23:55.317Z,87.39
2018-08-08T04:24:59.988Z,87.45
2018-08-08T04:26:04.679Z,88.54
2018-08-08T04:27:09.349Z,90.23
2018-08-08T04:28:14.007Z,90.20
2018-08-08T04:29:19.125Z,89.95
2018-08-08T04:30:23.763Z,90.37
2018-08-08T04:31:28.444Z,91.02
2018-08-08T04:32:33.136Z,91.53
2018-08-08T04:33:37.859Z,91.32
2018-08-08T04:34:43.197Z,91.33
2018-08-08T04:35:48.151Z,90.55
2018-08-08T04:36:52.805Z,89.25
2018-08-08T04:37:57.449Z,88.06
2018-08-08T04:39:02.105Z,86.11
2018-08-08T04:40:07.428Z,83.73
2018-08-08T04:41:12.096Z,83.05
2018-08-08T04:42:17.155Z,82.75
2018-08-08T04:43:22.256Z,81.89
2018-08-08T04:44:27.033Z,82.11
2018-08-08T04:45:32.542Z,81.66
2018-08-08T04:46:37.325Z,81.78
2018-08-08T04:47:42.602Z,81.50
2018-08-08T04:48:47.654Z,81.03
2018-08-08T04:49:52.300Z,80.91
2018-08-08T04:50:57.013Z,80.75
2018-08-08T04:52:03.232Z,81.32
2018-08-08T04:53:08.050Z,80.77
2018-08-08T04:54:12.726Z,81.27
2018-08-08T04:55:17.935Z,80.63
2018-08-08T04:56:22.617Z,79.90
2018-08-08T04:57:27.651Z,79.56
2018-08-08T04:58:32.332Z,79.77
2018-08-08T04:59:37.003Z,80.06
2018-08-08T05:00:41.792Z,80.40
2018-08-08T05:01:47.284Z,79.62
2018-08-08T05:02:51.910Z,80.16
2018-08-08T05:03:56.562Z,80.33
2018-08-08T05:05:01.202Z,80.66
2018-08-08T05:06:05.894Z,80.99
2018-08-08T05:07:10.503Z,81.61
2018-08-08T05:08:15.520Z,82.61
2018-08-08T05:09:20.219Z,83.46
2018-08-08T05:10:24.884Z,83.65
2018-08-08T05:11:29.560Z,83.83
2018-08-08T05:12:34.240Z,83.76
2018-08-08T05:13:38.904Z,83.87
2018-08-08T05:14:43.910Z,83.87
2018-08-08T05:15:49.269Z,83.99
2018-08-08T05:16:53.993Z,83.89
2018-08-08T05:17:59.314Z,84.12
2018-08-08T05:19:04.202Z,84.30
2018-08-08T05:20:09.273Z,84.48
2018-08-08T05:21:14.244Z,84.46
2018-08-08T05:22:18.935Z,84.55
2018-08-08T05:23:23.675Z,84.28
2018-08-08T05:24:28.336Z,84.18
2018-08-08T05:25:32.981Z,83.93
2018-08-08T05:26:37.660Z,84.14
2018-08-08T05:27:46.584Z,84.33
2018-08-08T05:28:51.334Z,84.60
2018-08-08T05:29:57.960Z,84.69
2018-08-08T05:33:31.165Z,84.89
2018-08-08T05:34:36.101Z,84.53
2018-08-08T05:35:40.735Z,84.84
2018-08-08T05:36:45.367Z,85.04
2018-08-08T05:37:50.134Z,85.14
2018-08-08T05:38:54.849Z,85.15
2018-08-08T05:39:59.502Z,84.96
2018-08-08T05:41:04.612Z,84.78
2018-08-08T05:42:09.295Z,84.71
2018-08-08T05:43:13.951Z,84.51
2018-08-08T05:44:18.645Z,84.67
2018-08-08T05:45:23.753Z,84.61
2018-08-08T05:46:28.442Z,84.52
2018-08-08T05:47:33.431Z,84.25
2018-08-08T05:48:38.063Z,84.14
2018-08-08T05:49:42.800Z,84.44
2018-08-08T05:50:47.445Z,84.58
2018-08-08T05:51:52.066Z,84.47
2018-08-08T05:52:57.018Z,84.16
2018-08-08T05:54:01.764Z,84.26
2018-08-08T05:55:07.575Z,84.12
2018-08-08T05:56:12.181Z,84.13
2018-08-08T05:57:17.280Z,84.13
2018-08-08T05:58:21.939Z,84.17
2018-08-08T05:59:27.044Z,84.28
2018-08-08T06:00:32.129Z,84.19
2018-08-08T06:01:36.920Z,83.89
2018-08-08T06:02:42.495Z,83.85
2018-08-08T06:03:47.259Z,83.67
2018-08-08T06:04:52.034Z,83.72
2018-08-08T06:05:57.204Z,83.40
2018-08-08T06:07:01.880Z,83.13
2018-08-08T06:08:06.779Z,83.22
2018-08-08T06:09:11.490Z,83.25
2018-08-08T06:10:16.126Z,83.22
2018-08-08T06:11:20.829Z,82.96
2018-08-08T06:12:26.218Z,82.75
2018-08-08T06:13:30.924Z,82.40
2018-08-08T06:14:35.774Z,82.32
2018-08-08T06:15:40.521Z,82.62
2018-08-08T06:16:47.293Z,82.36
2018-08-08T06:17:52.999Z,82.88
2018-08-08T06:18:58.989Z,82.96
2018-08-08T06:20:04.029Z,83.02
2018-08-08T06:21:09.114Z,83.12
2018-08-08T06:22:14.942Z,82.94
2018-08-08T06:23:19.633Z,82.96
2018-08-08T06:24:27.839Z,83.09
2018-08-08T06:25:35.900Z,82.94
2018-08-08T06:26:41.625Z,82.54
2018-08-08T06:27:47.461Z,82.83
2018-08-08T06:28:52.190Z,82.65
2018-08-08T06:29:59.154Z,82.13
2018-08-08T06:31:04.344Z,81.98
2018-08-08T06:32:10.477Z,82.57
2018-08-08T06:33:15.899Z,82.56
2018-08-08T06:34:21.281Z,82.98
2018-08-08T06:35:28.476Z,83.08
2018-08-08T06:36:33.095Z,83.16
2018-08-08T06:37:38.355Z,83.42
2018-08-08T06:38:43.431Z,83.40
2018-08-08T06:39:49.100Z,83.54
2018-08-08T06:40:56.390Z,83.79
2018-08-08T06:42:02.049Z,83.79
2018-08-08T06:43:07.651Z,83.81
2018-08-08T06:44:12.486Z,83.73
2018-08-08T06:45:18.141Z,83.67
2018-08-08T06:46:22.809Z,83.47
2018-08-08T06:47:29.112Z,83.12
2018-08-08T06:48:33.873Z,82.41
2018-08-08T06:49:38.549Z,82.20
2018-08-08T06:50:43.278Z,81.67
2018-08-08T06:51:48.489Z,81.25
2018-08-08T06:52:53.847Z,81.30
2018-08-08T06:53:58.576Z,80.96
2018-08-08T06:55:03.410Z,80.87
2018-08-08T06:56:08.134Z,80.48
2018-08-08T06:57:12.768Z,80.58
2018-08-08T06:58:17.463Z,80.10
2018-08-08T06:59:22.152Z,79.75
2018-08-08T07:00:29.099Z,79.04
2018-08-08T07:01:33.780Z,78.87
2018-08-08T07:02:38.485Z,78.57
2018-08-08T07:03:43.500Z,79.35
2018-08-08T07:04:49.317Z,79.42
2018-08-08T07:05:54.527Z,79.24
2018-08-08T07:06:59.271Z,79.35
2018-08-08T07:08:05.097Z,79.28
2018-08-08T07:09:10.951Z,79.18
2018-08-08T07:10:15.988Z,78.95
2018-08-08T07:11:20.697Z,78.66
2018-08-08T07:12:25.410Z,77.89
2018-08-08T07:13:30.920Z,77.90
2018-08-08T07:14:36.524Z,78.04
2018-08-08T07:15:41.186Z,78.07
2018-08-08T07:16:46.265Z,77.89
2018-08-08T07:17:50.942Z,77.43
2018-08-08T07:18:56.650Z,76.90
2018-08-08T07:20:01.409Z,77.39
2018-08-08T07:21:06.055Z,77.54
2018-08-08T07:22:10.690Z,77.81
2018-08-08T07:23:15.679Z,78.37
2018-08-08T07:24:20.348Z,78.31
2018-08-08T07:25:25.091Z,78.78
2018-08-08T07:26:29.766Z,78.06
2018-08-08T07:27:34.954Z,77.90
2018-08-08T07:28:40.277Z,77.85
2018-08-08T07:29:45.279Z,77.43
2018-08-08T07:30:50.365Z,77.21
2018-08-08T07:31:55.057Z,76.72
2018-08-08T07:33:00.053Z,75.87
2018-08-08T07:34:04.749Z,74.75
2018-08-08T07:35:10.148Z,74.66
2018-08-08T07:36:15.105Z,74.12
2018-08-08T07:37:19.763Z,73.83
2018-08-08T07:38:24.482Z,72.97
2018-08-08T07:39:29.130Z,72.91
2018-08-08T07:40:33.890Z,73.47
2018-08-08T07:41:39.396Z,73.20
2018-08-08T07:42:45.151Z,72.96
2018-08-08T07:43:50.500Z,71.70
2018-08-08T07:44:55.192Z,71.39
2018-08-08T07:45:59.972Z,71.73
2018-08-08T07:47:04.676Z,71.87
2018-08-08T07:48:09.396Z,72.26
2018-08-08T07:49:14.400Z,72.38
2018-08-08T07:50:19.198Z,72.65
2018-08-08T07:51:23.912Z,73.05
2018-08-08T07:52:28.622Z,72.85
2018-08-08T07:53:33.363Z,72.73
2018-08-08T07:54:38.050Z,72.51
2018-08-08T07:55:44.654Z,72.32
2018-08-08T07:56:50.437Z,71.46
2018-08-08T07:57:55.381Z,71.41
2018-08-08T07:59:00.087Z,70.90
2018-08-08T08:00:07.667Z,69.95
2018-08-08T08:01:12.341Z,69.74
2018-08-08T08:02:18.656Z,68.82
2018-08-08T08:03:24.447Z,69.60
2018-08-08T08:04:29.126Z,70.25
2018-08-08T08:05:34.855Z,70.46
2018-08-08T08:06:40.493Z,70.43
2018-08-08T08:07:45.304Z,70.38
2018-08-08T08:08:51.427Z,100.00
2018-08-08T08:09:56.204Z,70.76
2018-08-08T08:11:01.648Z,100.00
2018-08-08T08:12:08.772Z,71.26
2018-08-08T08:13:16.893Z,71.01
2018-08-08T08:14:21.688Z,70.53
2018-08-08T08:15:26.750Z,70.49
2018-08-08T08:16:32.429Z,70.70
2018-08-08T08:17:38.963Z,70.47
2018-08-08T08:18:43.720Z,70.10
2018-08-08T08:19:49.215Z,70.54
2018-08-08T08:20:53.966Z,70.11
2018-08-08T08:21:59.959Z,70.26
2018-08-08T08:23:05.396Z,70.45
2018-08-08T08:24:10.354Z,70.92
2018-08-08T08:25:15.321Z,70.82
2018-08-08T08:26:20.984Z,70.56
2018-08-08T08:27:26.025Z,70.53
2018-08-08T08:28:32.540Z,70.60
2018-08-08T08:29:37.464Z,70.93
2018-08-08T08:30:42.145Z,71.36
2018-08-08T08:31:46.889Z,71.39
2018-08-08T08:32:53.680Z,70.92
2018-08-08T08:33:59.113Z,70.72
2018-08-08T08:35:05.193Z,70.84
2018-08-08T08:36:10.183Z,70.79
2018-08-08T08:37:14.801Z,70.87
2018-08-08T08:38:19.542Z,70.96
2018-08-08T08:39:25.195Z,70.81
2018-08-08T08:40:29.897Z,70.68
2018-08-08T08:41:35.858Z,70.56
2018-08-08T08:42:41.982Z,70.53
2018-08-08T08:43:46.700Z,70.25
2018-08-08T08:44:51.921Z,70.29
2018-08-08T08:45:57.456Z,70.24
2018-08-08T08:47:03.066Z,70.38
2018-08-08T08:48:08.656Z,70.06
2018-08-08T08:49:17.354Z,0.00
2018-08-08T08:51:48.198Z,100.00
2018-08-08T08:52:53.214Z,69.45
2018-08-08T08:54:01.250Z,69.38
2018-08-08T08:55:09.117Z,69.26
2018-08-08T08:56:14.013Z,69.14
2018-08-08T08:57:19.382Z,68.86
2018-08-08T08:58:24.277Z,0.00
2018-08-08T08:59:31.125Z,100.00
2018-08-08T09:00:36.940Z,68.28
2018-08-08T09:01:43.597Z,67.85
2018-08-08T09:02:48.296Z,67.71
2018-08-08T09:03:53.000Z,67.11
2018-08-08T09:04:58.395Z,66.62
2018-08-08T09:06:03.987Z,65.52
2018-08-08T09:07:09.412Z,64.49
2018-08-08T09:08:15.428Z,64.74
2018-08-08T09:10:31.836Z,63.71
2018-08-08T09:11:36.494Z,64.19
2018-08-08T09:12:43.781Z,63.91
2018-08-08T09:13:50.260Z,63.02
2018-08-08T09:15:05.862Z,62.82
2018-08-08T09:16:12.006Z,62.18
2018-08-08T09:17:16.716Z,62.22
2018-08-08T09:18:21.529Z,62.64
2018-08-08T09:19:26.280Z,62.70
2018-08-08T09:20:31.894Z,62.17
2018-08-08T09:21:38.693Z,62.59
2018-08-08T09:22:43.380Z,62.72
2018-08-08T09:23:48.247Z,62.82
2018-08-08T09:24:56.213Z,62.60
2018-08-08T09:26:01.685Z,62.78
2018-08-08T09:27:06.353Z,62.95
2018-08-08T09:28:11.380Z,63.01
2018-08-08T09:29:16.710Z,62.63
2018-08-08T09:30:21.503Z,62.85
2018-08-08T09:31:26.288Z,62.72
2018-08-08T09:32:31.129Z,62.93
2018-08-08T09:33:36.656Z,62.55
2018-08-08T09:34:41.810Z,62.82
2018-08-08T09:35:49.743Z,62.50
2018-08-08T09:36:59.001Z,62.06
2018-08-08T09:39:20.824Z,61.59
2018-08-08T09:40:26.451Z,61.71
2018-08-08T09:41:31.552Z,61.41
2018-08-08T09:42:37.541Z,60.45
2018-08-08T09:43:44.037Z,60.46
2018-08-08T09:44:49.394Z,60.31
2018-08-08T09:45:54.114Z,60.32
2018-08-08T09:46:59.421Z,59.98
2018-08-08T09:48:04.814Z,59.76
2018-08-08T09:49:09.899Z,59.57
2018-08-08T09:50:14.699Z,59.85
2018-08-08T09:51:19.510Z,59.30
2018-08-08T09:52:25.274Z,58.93
2018-08-08T09:53:30.039Z,58.98
2018-08-08T09:54:35.241Z,59.59
2018-08-08T09:55:39.952Z,59.26
2018-08-08T09:56:44.701Z,59.70
2018-08-08T09:57:49.425Z,59.49
2018-08-08T09:58:54.261Z,58.95
2018-08-08T09:59:59.012Z,58.68
2018-08-08T10:01:09.241Z,57.83
2018-08-08T10:02:20.144Z,58.49
2018-08-08T10:03:30.814Z,58.27
2018-08-08T10:04:37.494Z,57.70
2018-08-08T10:05:43.399Z,57.79
2018-08-08T10:06:49.820Z,57.92
2018-08-08T10:07:55.368Z,57.85
2018-08-08T10:09:00.105Z,57.86
2018-08-08T10:10:05.155Z,58.16
2018-08-08T10:11:09.974Z,58.33
2018-08-08T10:12:14.753Z,58.21
2018-08-08T10:13:20.151Z,58.71
2018-08-08T10:14:25.372Z,58.17
2018-08-08T10:15:32.449Z,58.55
2018-08-08T10:16:38.397Z,58.20
2018-08-08T10:17:43.306Z,58.29
2018-08-08T10:18:48.342Z,57.51
2018-08-08T10:19:53.335Z,58.27
2018-08-08T10:20:58.590Z,57.93
2018-08-08T10:22:04.481Z,58.03
2018-08-08T10:23:09.339Z,57.90
2018-08-08T10:24:14.677Z,57.96
2018-08-08T10:25:20.141Z,58.04
2018-08-08T10:26:25.609Z,57.95
2018-08-08T10:27:32.488Z,57.65
2018-08-08T10:28:37.160Z,58.07
2018-08-08T10:29:42.016Z,57.79
2018-08-08T10:32:36.447Z,57.99
2018-08-08T10:33:41.442Z,57.67
2018-08-08T10:34:47.517Z,56.94
2018-08-08T10:35:52.239Z,56.52
2018-08-08T10:36:57.009Z,56.72
2018-08-08T10:38:01.790Z,56.11
2018-08-08T10:39:08.056Z,56.13
2018-08-08T10:40:13.365Z,55.91
2018-08-08T10:41:18.895Z,55.48
2018-08-08T10:42:23.764Z,55.54
2018-08-08T10:43:29.322Z,55.33
2018-08-08T10:44:34.313Z,54.96
2018-08-08T10:45:39.164Z,53.92
2018-08-08T10:46:48.561Z,55.14
2018-08-08T10:47:54.561Z,55.01
2018-08-08T10:49:03.309Z,54.50
2018-08-08T10:50:09.257Z,54.60
2018-08-08T10:51:14.620Z,54.57
2018-08-08T10:52:20.676Z,54.66
2018-08-08T10:53:25.812Z,54.29
2018-08-08T10:54:33.062Z,53.79
2018-08-08T10:55:38.394Z,54.44
2018-08-08T10:56:45.171Z,53.86
2018-08-08T10:57:49.901Z,54.24
2018-08-08T10:58:55.132Z,53.52
2018-08-08T11:00:01.250Z,53.40
2018-08-08T11:01:05.989Z,53.20
2018-08-08T11:02:10.867Z,52.58
2018-08-08T11:03:16.864Z,52.43
2018-08-08T11:04:23.311Z,52.16
2018-08-08T11:05:28.830Z,51.37
2018-08-08T11:06:34.446Z,51.52
2018-08-08T11:07:40.130Z,51.68
2018-08-08T11:08:46.050Z,51.11
2018-08-08T11:09:51.269Z,51.67
2018-08-08T11:10:57.628Z,52.08
2018-08-08T11:12:03.423Z,52.27
2018-08-08T11:13:08.136Z,52.28
2018-08-08T11:14:13.581Z,52.76
2018-08-08T11:15:18.301Z,52.17
2018-08-08T11:16:23.323Z,51.64
2018-08-08T11:17:28.073Z,51.56
2018-08-08T11:18:33.287Z,51.72
2018-08-08T11:19:41.165Z,52.08
2018-08-08T11:20:47.575Z,51.73
2018-08-08T11:21:53.340Z,52.52
2018-08-08T11:22:59.353Z,52.50
2018-08-08T11:24:05.203Z,52.38
2018-08-08T11:25:12.309Z,52.78
2018-08-08T11:26:19.196Z,52.31
2018-08-08T11:27:28.337Z,52.00
2018-08-08T11:28:35.293Z,50.31
2018-08-08T11:29:41.546Z,49.63
2018-08-08T11:30:47.077Z,48.85
2018-08-08T11:31:55.563Z,48.81
2018-08-08T11:33:04.472Z,49.11
2018-08-08T11:34:14.203Z,49.72
2018-08-08T11:35:19.831Z,49.99
2018-08-08T11:36:24.741Z,49.39
2018-08-08T11:37:30.545Z,49.67
2018-08-08T11:38:36.508Z,49.70
2018-08-08T11:39:43.417Z,49.86
2018-08-08T11:40:48.747Z,49.50
2018-08-08T11:41:53.574Z,49.71
2018-08-08T11:42:59.394Z,48.67
2018-08-08T11:44:04.143Z,48.55
2018-08-08T11:45:10.576Z,48.16
2018-08-08T11:46:16.114Z,47.93
2018-08-08T11:47:25.694Z,46.92
2018-08-08T11:48:30.495Z,47.54
2018-08-08T11:49:36.288Z,46.84
2018-08-08T11:50:45.501Z,46.30
2018-08-08T11:51:52.571Z,46.19
2018-08-08T11:53:03.098Z,46.14
2018-08-08T11:54:12.745Z,46.08
2018-08-08T11:55:22.281Z,46.21
2018-08-08T11:56:27.108Z,46.51
2018-08-08T11:57:32.975Z,45.36
2018-08-08T11:58:38.039Z,46.03
2018-08-08T11:59:45.387Z,46.36
2018-08-08T12:00:52.242Z,45.90
2018-08-08T12:01:57.254Z,46.09
2018-08-08T12:03:04.384Z,45.37
2018-08-08T12:04:14.719Z,45.88
2018-08-08T12:05:19.647Z,47.33
2018-08-08T12:06:25.278Z,47.92
2018-08-08T12:07:33.489Z,47.90
2018-08-08T12:09:50.404Z,48.54
2018-08-08T12:10:55.490Z,48.42
2018-08-08T12:12:00.209Z,48.15
2018-08-08T12:13:14.256Z,48.98
2018-08-08T12:14:19.672Z,48.75
2018-08-08T12:15:25.413Z,48.98
2018-08-08T12:16:32.715Z,48.32
2018-08-08T12:17:39.795Z,47.53
2018-08-08T12:18:44.466Z,47.32
2018-08-08T12:19:50.321Z,46.04
2018-08-08T12:20:56.087Z,46.15
2018-08-08T12:22:02.169Z,46.69
2018-08-08T12:23:09.931Z,47.12
2018-08-08T12:24:15.352Z,47.10
2018-08-08T12:25:24.372Z,47.14
2018-08-08T12:26:31.080Z,46.42
2018-08-08T12:27:36.165Z,46.91
2018-08-08T12:28:43.469Z,46.67
2018-08-08T12:29:50.048Z,46.38
2018-08-08T12:30:55.041Z,46.83
2018-08-08T12:32:02.823Z,47.09
2018-08-08T12:33:07.597Z,46.78
2018-08-08T12:34:12.290Z,46.81
2018-08-08T12:35:27.813Z,46.42
2018-08-08T12:36:34.822Z,46.67
2018-08-08T12:37:43.812Z,46.92
2018-08-08T12:38:50.251Z,46.74
2018-08-08T12:39:54.971Z,46.61
2018-08-08T12:40:59.632Z,45.97
2018-08-08T12:42:04.807Z,45.55
2018-08-08T12:43:09.954Z,45.55
2018-08-08T12:44:15.659Z,45.70
2018-08-08T12:45:21.243Z,46.04
2018-08-08T12:46:26.677Z,45.97
2018-08-08T12:47:33.098Z,46.08
2018-08-08T12:48:38.379Z,45.93
2018-08-08T12:49:46.368Z,45.17
2018-08-08T12:50:54.115Z,45.31
2018-08-08T12:51:59.043Z,44.97
2018-08-08T12:53:04.289Z,44.93
2018-08-08T12:54:08.992Z,44.49
2018-08-08T12:55:13.688Z,44.89
2018-08-08T12:56:19.649Z,44.90
2018-08-08T12:57:27.356Z,44.30
2018-08-08T12:58:32.885Z,44.36
2018-08-08T12:59:37.657Z,45.21
2018-08-08T13:00:44.404Z,45.55
2018-08-08T13:01:50.302Z,45.89
2018-08-08T13:02:55.057Z,45.91
2018-08-08T13:03:59.845Z,46.00
2018-08-08T13:05:04.577Z,45.96
2018-08-08T13:06:09.984Z,46.10
2018-08-08T13:07:14.641Z,45.92
2018-08-08T13:08:19.319Z,45.73
2018-08-08T13:09:24.571Z,45.65
2018-08-08T13:10:29.898Z,44.80
2018-08-08T13:11:37.569Z,44.13
2018-08-08T13:12:43.893Z,44.79
2018-08-08T13:13:51.492Z,46.52
2018-08-08T13:14:57.941Z,46.77
2018-08-08T13:16:07.895Z,47.10
2018-08-08T13:17:13.324Z,47.69
2018-08-08T13:18:18.114Z,48.21
2018-08-08T13:19:23.722Z,49.23
2018-08-08T13:20:28.895Z,50.45
2018-08-08T13:21:34.455Z,50.66
2018-08-08T13:22:39.277Z,51.00
2018-08-08T13:23:45.146Z,51.10
2018-08-08T13:24:51.704Z,50.09
2018-08-08T13:25:58.263Z,49.12
2018-08-08T13:27:03.978Z,49.16
2018-08-08T13:28:08.638Z,50.19
2018-08-08T13:29:15.805Z,50.53
2018-08-08T13:30:21.095Z,50.91
2018-08-08T13:31:25.752Z,50.98
2018-08-08T13:32:30.821Z,51.30
2018-08-08T13:33:37.701Z,50.97
2018-08-08T13:34:44.796Z,51.39
2018-08-08T13:35:49.443Z,51.51
2018-08-08T13:36:53.961Z,51.42
2018-08-08T13:37:58.545Z,51.86
2018-08-08T13:39:03.532Z,51.98
2018-08-08T13:40:08.159Z,52.67
2018-08-08T13:41:14.248Z,52.11
2018-08-08T13:42:19.952Z,52.17
2018-08-08T13:43:26.609Z,52.25
2018-08-08T13:44:32.020Z,51.66
2018-08-08T13:45:36.980Z,51.60
2018-08-08T13:46:42.643Z,51.69
2018-08-08T13:47:48.072Z,51.27
2018-08-08T13:48:53.722Z,51.08
2018-08-08T13:50:00.651Z,51.40
2018-08-08T13:51:06.440Z,50.83
2018-08-08T13:52:14.066Z,50.25
2018-08-08T13:53:19.621Z,49.75
2018-08-08T13:55:38.641Z,49.13
2018-08-08T13:56:43.306Z,49.09
2018-08-08T13:57:49.566Z,48.53
2018-08-08T13:58:56.031Z,47.93
2018-08-08T14:00:01.822Z,48.15
2018-08-08T14:01:07.469Z,49.62
2018-08-08T14:02:14.778Z,49.76
2018-08-08T14:03:22.303Z,49.06
2018-08-08T14:04:26.957Z,49.18
2018-08-08T14:05:33.430Z,49.55
2018-08-08T14:06:38.134Z,49.55
2018-08-08T14:07:43.315Z,48.98
2018-08-08T14:08:51.420Z,49.13
2018-08-08T14:09:59.443Z,49.03
2018-08-08T14:11:06.512Z,49.31
2018-08-08T14:12:18.534Z,49.68